sensor_id;sensor_type;location;lat;lon;timestamp;pressure;altitude;pressure_sealevel;temperature;humidity
72525;BME280;60547;48.502;8.996;2023-02-01T00:01:10;98691.84;;;2.70;89.78
72525;BME280;60547;48.502;8.996;2023-02-01T00:03:36;98681.22;;;2.68;90.16
72525;BME280;60547;48.502;8.996;2023-02-01T00:06:02;98679.34;;;2.72;89.87
72525;BME280;60547;48.502;8.996;2023-02-01T00:08:28;98683.31;;;2.75;89.30
72525;BME280;60547;48.502;8.996;2023-02-01T00:11:01;98678.59;;;2.75;89.77
72525;BME280;60547;48.502;8.996;2023-02-01T00:13:29;98673.03;;;2.72;89.73
72525;BME280;60547;48.502;8.996;2023-02-01T00:15:55;98677.44;;;2.76;89.08
72525;BME280;60547;48.502;8.996;2023-02-01T00:18:26;98673.97;;;2.79;88.97
72525;BME280;60547;48.502;8.996;2023-02-01T00:20:52;98671.09;;;2.72;89.11
72525;BME280;60547;48.502;8.996;2023-02-01T00:23:17;98667.97;;;2.74;89.63
72525;BME280;60547;48.502;8.996;2023-02-01T00:25:43;98671.53;;;2.74;89.48
72525;BME280;60547;48.502;8.996;2023-02-01T00:28:08;98669.25;;;2.80;89.01
72525;BME280;60547;48.502;8.996;2023-02-01T00:30:34;98664.50;;;2.77;88.68
72525;BME280;60547;48.502;8.996;2023-02-01T00:33:00;98654.72;;;2.79;88.68
72525;BME280;60547;48.502;8.996;2023-02-01T00:35:25;98648.00;;;2.77;88.77
72525;BME280;60547;48.502;8.996;2023-02-01T00:37:50;98657.06;;;2.77;88.96
72525;BME280;60547;48.502;8.996;2023-02-01T00:40:16;98648.81;;;2.77;89.32
72525;BME280;60547;48.502;8.996;2023-02-01T00:42:42;98659.91;;;2.84;89.13
72525;BME280;60547;48.502;8.996;2023-02-01T00:45:08;98655.59;;;2.83;89.26
72525;BME280;60547;48.502;8.996;2023-02-01T00:47:33;98663.41;;;2.81;88.91
72525;BME280;60547;48.502;8.996;2023-02-01T00:49:59;98640.13;;;2.75;89.25
72525;BME280;60547;48.502;8.996;2023-02-01T00:52:25;98648.06;;;2.80;89.39
72525;BME280;60547;48.502;8.996;2023-02-01T00:54:50;98641.84;;;2.83;89.40
72525;BME280;60547;48.502;8.996;2023-02-01T00:57:16;98637.09;;;2.80;89.38
72525;BME280;60547;48.502;8.996;2023-02-01T00:59:44;98632.75;;;2.79;89.85
72525;BME280;60547;48.502;8.996;2023-02-01T01:02:09;98633.91;;;2.78;89.86
72525;BME280;60547;48.502;8.996;2023-02-01T01:04:36;98630.84;;;2.83;89.51
72525;BME280;60547;48.502;8.996;2023-02-01T01:07:01;98617.47;;;2.82;89.21
72525;BME280;60547;48.502;8.996;2023-02-01T01:09:26;98620.59;;;2.80;89.79
72525;BME280;60547;48.502;8.996;2023-02-01T01:11:52;98634.03;;;2.85;89.72
72525;BME280;60547;48.502;8.996;2023-02-01T01:14:18;98634.44;;;2.87;90.02
72525;BME280;60547;48.502;8.996;2023-02-01T01:16:43;98634.88;;;2.89;88.89
72525;BME280;60547;48.502;8.996;2023-02-01T01:19:08;98637.19;;;2.87;89.73
72525;BME280;60547;48.502;8.996;2023-02-01T01:21:34;98641.78;;;2.80;90.40
72525;BME280;60547;48.502;8.996;2023-02-01T01:23:59;98639.47;;;2.82;89.96
72525;BME280;60547;48.502;8.996;2023-02-01T01:26:27;98639.09;;;2.83;90.60
72525;BME280;60547;48.502;8.996;2023-02-01T01:28:55;98642.63;;;2.84;89.79
72525;BME280;60547;48.502;8.996;2023-02-01T01:31:21;98641.03;;;2.83;90.84
72525;BME280;60547;48.502;8.996;2023-02-01T01:33:49;98629.19;;;2.79;89.66
72525;BME280;60547;48.502;8.996;2023-02-01T01:36:15;98622.28;;;2.88;89.97
72525;BME280;60547;48.502;8.996;2023-02-01T01:38:41;98614.38;;;2.83;90.34
72525;BME280;60547;48.502;8.996;2023-02-01T01:41:08;98613.63;;;2.86;89.77
72525;BME280;60547;48.502;8.996;2023-02-01T01:46:19;98611.38;;;2.92;89.75
72525;BME280;60547;48.502;8.996;2023-02-01T01:48:45;98602.75;;;2.94;89.37
72525;BME280;60547;48.502;8.996;2023-02-01T01:51:12;98604.34;;;2.95;89.67
72525;BME280;60547;48.502;8.996;2023-02-01T01:53:46;98602.00;;;2.97;90.04
72525;BME280;60547;48.502;8.996;2023-02-01T01:56:14;98593.72;;;2.93;89.77
72525;BME280;60547;48.502;8.996;2023-02-01T01:58:40;98605.38;;;2.86;89.75
72525;BME280;60547;48.502;8.996;2023-02-01T02:01:06;98594.88;;;2.92;89.95
72525;BME280;60547;48.502;8.996;2023-02-01T02:03:35;98610.69;;;2.99;89.52
72525;BME280;60547;48.502;8.996;2023-02-01T02:06:05;98598.00;;;2.90;89.81
72525;BME280;60547;48.502;8.996;2023-02-01T02:08:34;98602.00;;;2.97;89.29
72525;BME280;60547;48.502;8.996;2023-02-01T02:11:00;98591.22;;;2.84;90.19
72525;BME280;60547;48.502;8.996;2023-02-01T02:13:37;98593.34;;;2.95;90.05
72525;BME280;60547;48.502;8.996;2023-02-01T02:18:55;98576.84;;;2.95;89.64
72525;BME280;60547;48.502;8.996;2023-02-01T02:24:47;98574.53;;;2.97;89.97
72525;BME280;60547;48.502;8.996;2023-02-01T02:35:59;98571.41;;;2.98;90.47
72525;BME280;60547;48.502;8.996;2023-02-01T02:38:32;98563.22;;;3.02;90.58
72525;BME280;60547;48.502;8.996;2023-02-01T02:43:46;98574.69;;;3.07;89.86
72525;BME280;60547;48.502;8.996;2023-02-01T02:46:39;98569.97;;;3.08;90.08
72525;BME280;60547;48.502;8.996;2023-02-01T02:49:50;98578.22;;;3.08;91.13
72525;BME280;60547;48.502;8.996;2023-02-01T02:52:54;98575.75;;;2.99;90.86
72525;BME280;60547;48.502;8.996;2023-02-01T02:55:41;98566.75;;;3.02;91.38
72525;BME280;60547;48.502;8.996;2023-02-01T02:58:08;98558.56;;;3.06;90.61
72525;BME280;60547;48.502;8.996;2023-02-01T03:00:54;98557.41;;;3.07;90.93
72525;BME280;60547;48.502;8.996;2023-02-01T03:03:40;98565.91;;;2.98;91.37
72525;BME280;60547;48.502;8.996;2023-02-01T03:06:24;98565.16;;;3.01;91.32
72525;BME280;60547;48.502;8.996;2023-02-01T03:08:51;98558.03;;;2.97;91.78
72525;BME280;60547;48.502;8.996;2023-02-01T03:11:23;98561.94;;;2.96;91.76
72525;BME280;60547;48.502;8.996;2023-02-01T03:13:51;98552.59;;;3.00;92.24
72525;BME280;60547;48.502;8.996;2023-02-01T03:16:39;98563.22;;;3.02;92.15
72525;BME280;60547;48.502;8.996;2023-02-01T03:24:15;98567.53;;;3.03;91.66
72525;BME280;60547;48.502;8.996;2023-02-01T03:26:48;98554.19;;;3.01;91.43
72525;BME280;60547;48.502;8.996;2023-02-01T03:29:24;98560.50;;;3.05;90.83
72525;BME280;60547;48.502;8.996;2023-02-01T03:31:50;98551.47;;;3.05;90.83
72525;BME280;60547;48.502;8.996;2023-02-01T03:34:16;98561.72;;;3.08;90.95
72525;BME280;60547;48.502;8.996;2023-02-01T03:36:58;98569.25;;;3.11;90.64
72525;BME280;60547;48.502;8.996;2023-02-01T03:39:34;98555.91;;;3.13;90.62
72525;BME280;60547;48.502;8.996;2023-02-01T03:42:10;98562.94;;;3.10;90.18
72525;BME280;60547;48.502;8.996;2023-02-01T03:47:19;98556.22;;;3.08;90.24
72525;BME280;60547;48.502;8.996;2023-02-01T03:49:55;98566.13;;;3.12;90.18
72525;BME280;60547;48.502;8.996;2023-02-01T03:52:37;98561.41;;;3.13;89.61
72525;BME280;60547;48.502;8.996;2023-02-01T03:55:04;98564.16;;;3.13;89.31
72525;BME280;60547;48.502;8.996;2023-02-01T03:57:34;98561.69;;;3.04;90.16
72525;BME280;60547;48.502;8.996;2023-02-01T04:00:14;98553.16;;;3.13;90.05
72525;BME280;60547;48.502;8.996;2023-02-01T04:02:41;98544.44;;;3.07;89.63
72525;BME280;60547;48.502;8.996;2023-02-01T04:05:07;98556.66;;;3.10;89.98
72525;BME280;60547;48.502;8.996;2023-02-01T04:07:33;98551.09;;;3.06;90.12
72525;BME280;60547;48.502;8.996;2023-02-01T04:09:59;98532.56;;;3.00;90.29
72525;BME280;60547;48.502;8.996;2023-02-01T04:12:24;98537.03;;;3.11;90.22
72525;BME280;60547;48.502;8.996;2023-02-01T04:14:50;98520.06;;;3.06;90.01
72525;BME280;60547;48.502;8.996;2023-02-01T04:17:15;98511.34;;;3.00;90.31
72525;BME280;60547;48.502;8.996;2023-02-01T04:19:41;98531.41;;;3.01;89.81
72525;BME280;60547;48.502;8.996;2023-02-01T04:22:06;98526.75;;;3.05;89.58
72525;BME280;60547;48.502;8.996;2023-02-01T04:24:31;98508.25;;;3.02;89.25
72525;BME280;60547;48.502;8.996;2023-02-01T04:26:57;98511.00;;;3.02;88.76
72525;BME280;60547;48.502;8.996;2023-02-01T04:29:22;98520.91;;;3.10;88.93
72525;BME280;60547;48.502;8.996;2023-02-01T04:31:48;98521.34;;;3.12;88.81
72525;BME280;60547;48.502;8.996;2023-02-01T04:34:14;98537.31;;;3.03;89.55
72525;BME280;60547;48.502;8.996;2023-02-01T04:36:40;98548.00;;;3.08;89.18
72525;BME280;60547;48.502;8.996;2023-02-01T04:39:08;98539.63;;;3.01;89.21
72525;BME280;60547;48.502;8.996;2023-02-01T04:41:34;98550.22;;;2.99;89.21
72525;BME280;60547;48.502;8.996;2023-02-01T04:43:59;98556.59;;;3.06;89.02
72525;BME280;60547;48.502;8.996;2023-02-01T04:46:25;98558.47;;;2.99;89.52
72525;BME280;60547;48.502;8.996;2023-02-01T04:48:50;98556.44;;;2.96;89.67
72525;BME280;60547;48.502;8.996;2023-02-01T04:51:16;98570.28;;;3.03;89.12
72525;BME280;60547;48.502;8.996;2023-02-01T04:53:44;98566.69;;;2.99;88.82
72525;BME280;60547;48.502;8.996;2023-02-01T04:56:09;98564.69;;;2.96;88.84
72525;BME280;60547;48.502;8.996;2023-02-01T04:58:35;98553.38;;;3.01;88.87
72525;BME280;60547;48.502;8.996;2023-02-01T05:01:04;98547.78;;;2.94;88.82
72525;BME280;60547;48.502;8.996;2023-02-01T05:03:34;98546.19;;;2.92;88.96
72525;BME280;60547;48.502;8.996;2023-02-01T05:06:00;98550.63;;;3.01;88.37
72525;BME280;60547;48.502;8.996;2023-02-01T05:08:26;98546.72;;;3.02;88.46
72525;BME280;60547;48.502;8.996;2023-02-01T05:10:52;98542.59;;;3.15;87.31
72525;BME280;60547;48.502;8.996;2023-02-01T05:13:18;98528.28;;;3.02;88.08
72525;BME280;60547;48.502;8.996;2023-02-01T05:16:02;98542.97;;;3.13;87.99
72525;BME280;60547;48.502;8.996;2023-02-01T05:18:28;98548.88;;;3.15;87.89
72525;BME280;60547;48.502;8.996;2023-02-01T05:20:53;98548.41;;;3.10;88.06
72525;BME280;60547;48.502;8.996;2023-02-01T05:23:19;98553.44;;;3.04;87.50
72525;BME280;60547;48.502;8.996;2023-02-01T05:25:51;98557.88;;;3.12;88.21
72525;BME280;60547;48.502;8.996;2023-02-01T05:28:27;98556.72;;;3.13;87.68
72525;BME280;60547;48.502;8.996;2023-02-01T05:30:56;98543.22;;;3.05;87.56
72525;BME280;60547;48.502;8.996;2023-02-01T05:33:24;98536.25;;;3.11;87.40
72525;BME280;60547;48.502;8.996;2023-02-01T05:35:50;98535.47;;;3.10;87.75
72525;BME280;60547;48.502;8.996;2023-02-01T05:38:15;98536.31;;;3.14;87.96
72525;BME280;60547;48.502;8.996;2023-02-01T05:40:41;98532.34;;;3.12;87.09
72525;BME280;60547;48.502;8.996;2023-02-01T05:43:06;98523.34;;;3.15;86.79
72525;BME280;60547;48.502;8.996;2023-02-01T05:45:32;98541.47;;;3.19;86.65
72525;BME280;60547;48.502;8.996;2023-02-01T05:47:57;98542.63;;;3.18;86.87
72525;BME280;60547;48.502;8.996;2023-02-01T05:50:23;98543.44;;;3.19;86.87
72525;BME280;60547;48.502;8.996;2023-02-01T05:52:48;98548.13;;;3.18;86.90
72525;BME280;60547;48.502;8.996;2023-02-01T05:55:14;98540.22;;;3.13;86.64
72525;BME280;60547;48.502;8.996;2023-02-01T05:57:39;98551.31;;;3.20;86.41
72525;BME280;60547;48.502;8.996;2023-02-01T06:00:05;98561.50;;;3.20;86.59
72525;BME280;60547;48.502;8.996;2023-02-01T06:02:31;98563.56;;;3.27;86.73
72525;BME280;60547;48.502;8.996;2023-02-01T06:04:56;98559.19;;;3.22;86.69
72525;BME280;60547;48.502;8.996;2023-02-01T06:07:22;98556.34;;;3.15;87.17
72525;BME280;60547;48.502;8.996;2023-02-01T06:09:47;98565.09;;;3.24;86.14
72525;BME280;60547;48.502;8.996;2023-02-01T06:12:13;98564.78;;;3.29;86.29
72525;BME280;60547;48.502;8.996;2023-02-01T06:14:39;98559.72;;;3.31;85.86
72525;BME280;60547;48.502;8.996;2023-02-01T06:17:04;98562.56;;;3.38;84.76
72525;BME280;60547;48.502;8.996;2023-02-01T06:19:31;98570.47;;;3.43;84.93
72525;BME280;60547;48.502;8.996;2023-02-01T06:21:56;98566.16;;;3.42;85.27
72525;BME280;60547;48.502;8.996;2023-02-01T06:24:22;98578.25;;;3.38;86.15
72525;BME280;60547;48.502;8.996;2023-02-01T06:26:47;98569.59;;;3.36;85.87
72525;BME280;60547;48.502;8.996;2023-02-01T06:29:13;98579.84;;;3.39;87.16
72525;BME280;60547;48.502;8.996;2023-02-01T06:31:39;98573.31;;;3.20;88.69
72525;BME280;60547;48.502;8.996;2023-02-01T06:34:05;98576.47;;;3.22;88.75
72525;BME280;60547;48.502;8.996;2023-02-01T06:36:30;98571.72;;;3.19;89.60
72525;BME280;60547;48.502;8.996;2023-02-01T06:38:56;98568.19;;;3.19;89.22
72525;BME280;60547;48.502;8.996;2023-02-01T06:41:22;98579.56;;;3.17;89.72
72525;BME280;60547;48.502;8.996;2023-02-01T06:43:48;98578.91;;;3.28;89.87
72525;BME280;60547;48.502;8.996;2023-02-01T06:46:14;98591.75;;;3.20;90.09
72525;BME280;60547;48.502;8.996;2023-02-01T06:48:40;98588.91;;;3.13;90.74
72525;BME280;60547;48.502;8.996;2023-02-01T06:51:12;98581.09;;;3.15;90.89
72525;BME280;60547;48.502;8.996;2023-02-01T06:53:43;98577.91;;;3.13;90.64
72525;BME280;60547;48.502;8.996;2023-02-01T06:56:08;98583.94;;;3.22;90.05
72525;BME280;60547;48.502;8.996;2023-02-01T06:58:34;98581.13;;;3.18;89.75
72525;BME280;60547;48.502;8.996;2023-02-01T07:01:08;98592.25;;;3.26;89.56
72525;BME280;60547;48.502;8.996;2023-02-01T07:03:34;98584.41;;;3.28;89.43
72525;BME280;60547;48.502;8.996;2023-02-01T07:06:00;98581.94;;;3.19;89.03
72525;BME280;60547;48.502;8.996;2023-02-01T07:08:29;98574.75;;;3.11;90.09
72525;BME280;60547;48.502;8.996;2023-02-01T07:10:55;98588.16;;;3.16;90.56
72525;BME280;60547;48.502;8.996;2023-02-01T07:13:20;98581.72;;;3.05;91.06
72525;BME280;60547;48.502;8.996;2023-02-01T07:15:46;98578.53;;;3.03;91.03
72525;BME280;60547;48.502;8.996;2023-02-01T07:18:13;98575.06;;;3.06;90.78
72525;BME280;60547;48.502;8.996;2023-02-01T07:20:40;98579.28;;;3.00;91.96
72525;BME280;60547;48.502;8.996;2023-02-01T07:23:05;98590.69;;;3.02;91.98
72525;BME280;60547;48.502;8.996;2023-02-01T07:25:31;98593.88;;;3.04;91.27
72525;BME280;60547;48.502;8.996;2023-02-01T07:27:57;98595.16;;;3.10;91.64
72525;BME280;60547;48.502;8.996;2023-02-01T07:30:23;98596.72;;;3.11;90.52
72525;BME280;60547;48.502;8.996;2023-02-01T07:32:48;98591.66;;;3.13;90.32
72525;BME280;60547;48.502;8.996;2023-02-01T07:35:14;98597.03;;;3.06;90.82
72525;BME280;60547;48.502;8.996;2023-02-01T07:37:40;98587.63;;;3.07;91.21
72525;BME280;60547;48.502;8.996;2023-02-01T07:40:05;98607.84;;;3.18;90.22
72525;BME280;60547;48.502;8.996;2023-02-01T07:42:31;98615.03;;;3.26;89.32
72525;BME280;60547;48.502;8.996;2023-02-01T07:44:56;98623.69;;;3.28;89.48
72525;BME280;60547;48.502;8.996;2023-02-01T07:47:22;98627.50;;;3.20;89.58
72525;BME280;60547;48.502;8.996;2023-02-01T07:49:48;98618.09;;;3.21;89.04
72525;BME280;60547;48.502;8.996;2023-02-01T07:52:13;98622.53;;;3.29;89.14
72525;BME280;60547;48.502;8.996;2023-02-01T07:54:41;98612.22;;;3.22;89.54
72525;BME280;60547;48.502;8.996;2023-02-01T07:57:06;98614.25;;;3.26;89.37
72525;BME280;60547;48.502;8.996;2023-02-01T07:59:34;98624.88;;;3.27;88.80
72525;BME280;60547;48.502;8.996;2023-02-01T08:01:59;98619.00;;;3.29;89.52
72525;BME280;60547;48.502;8.996;2023-02-01T08:04:25;98624.97;;;3.34;88.72
72525;BME280;60547;48.502;8.996;2023-02-01T08:06:50;98608.88;;;3.36;88.45
72525;BME280;60547;48.502;8.996;2023-02-01T08:09:16;98603.75;;;3.35;89.07
72525;BME280;60547;48.502;8.996;2023-02-01T08:11:41;98613.66;;;3.39;88.87
72525;BME280;60547;48.502;8.996;2023-02-01T08:14:07;98613.75;;;3.46;88.61
72525;BME280;60547;48.502;8.996;2023-02-01T08:16:33;98606.03;;;3.55;87.70
72525;BME280;60547;48.502;8.996;2023-02-01T08:19:00;98605.28;;;3.59;87.62
72525;BME280;60547;48.502;8.996;2023-02-01T08:21:27;98602.25;;;3.67;87.32
72525;BME280;60547;48.502;8.996;2023-02-01T08:24:03;98605.78;;;3.68;86.57
72525;BME280;60547;48.502;8.996;2023-02-01T08:26:29;98599.94;;;3.73;86.44
72525;BME280;60547;48.502;8.996;2023-02-01T08:28:57;98598.78;;;3.74;86.85
72525;BME280;60547;48.502;8.996;2023-02-01T08:31:24;98588.53;;;3.71;86.24
72525;BME280;60547;48.502;8.996;2023-02-01T08:33:55;98601.34;;;3.60;86.39
72525;BME280;60547;48.502;8.996;2023-02-01T08:36:21;98613.28;;;3.71;86.12
72525;BME280;60547;48.502;8.996;2023-02-01T08:38:47;98599.13;;;3.69;85.57
72525;BME280;60547;48.502;8.996;2023-02-01T08:41:15;98598.69;;;3.67;86.40
72525;BME280;60547;48.502;8.996;2023-02-01T08:43:41;98602.66;;;3.69;85.67
72525;BME280;60547;48.502;8.996;2023-02-01T08:46:08;98621.59;;;3.74;85.63
72525;BME280;60547;48.502;8.996;2023-02-01T08:48:34;98619.63;;;3.75;84.80
72525;BME280;60547;48.502;8.996;2023-02-01T08:51:02;98623.19;;;3.75;85.07
72525;BME280;60547;48.502;8.996;2023-02-01T08:53:30;98621.22;;;3.76;84.92
72525;BME280;60547;48.502;8.996;2023-02-01T08:55:55;98621.31;;;3.83;84.82
72525;BME280;60547;48.502;8.996;2023-02-01T08:58:21;98621.72;;;3.85;84.37
72525;BME280;60547;48.502;8.996;2023-02-01T09:00:47;98614.69;;;3.87;84.32
72525;BME280;60547;48.502;8.996;2023-02-01T09:03:14;98614.28;;;3.85;84.51
72525;BME280;60547;48.502;8.996;2023-02-01T09:05:40;98619.41;;;3.87;84.27
72525;BME280;60547;48.502;8.996;2023-02-01T09:08:05;98624.53;;;3.88;84.38
72525;BME280;60547;48.502;8.996;2023-02-01T09:10:31;98611.50;;;3.85;84.08
72525;BME280;60547;48.502;8.996;2023-02-01T09:12:57;98618.16;;;3.81;84.20
72525;BME280;60547;48.502;8.996;2023-02-01T09:15:23;98614.59;;;3.80;84.56
72525;BME280;60547;48.502;8.996;2023-02-01T09:17:49;98626.13;;;3.89;84.15
72525;BME280;60547;48.502;8.996;2023-02-01T09:20:15;98625.22;;;3.82;84.15
72525;BME280;60547;48.502;8.996;2023-02-01T09:22:40;98620.53;;;3.82;84.17
72525;BME280;60547;48.502;8.996;2023-02-01T09:25:07;98633.97;;;3.87;84.28
72525;BME280;60547;48.502;8.996;2023-02-01T09:27:33;98638.66;;;3.87;83.98
72525;BME280;60547;48.502;8.996;2023-02-01T09:29:58;98643.34;;;3.83;84.03
72525;BME280;60547;48.502;8.996;2023-02-01T09:32:24;98641.84;;;3.89;83.25
72525;BME280;60547;48.502;8.996;2023-02-01T09:34:51;98628.41;;;3.84;82.99
72525;BME280;60547;48.502;8.996;2023-02-01T09:37:17;98639.47;;;3.87;83.31
72525;BME280;60547;48.502;8.996;2023-02-01T09:39:43;98636.72;;;3.87;83.33
72525;BME280;60547;48.502;8.996;2023-02-01T09:47:55;98627.09;;;4.04;83.76
72525;BME280;60547;48.502;8.996;2023-02-01T09:50:30;98617.44;;;4.21;82.54
72525;BME280;60547;48.502;8.996;2023-02-01T09:53:05;98630.63;;;4.38;81.96
72525;BME280;60547;48.502;8.996;2023-02-01T09:55:39;98639.03;;;4.52;80.53
72525;BME280;60547;48.502;8.996;2023-02-01T09:58:11;98637.84;;;4.53;80.71
72525;BME280;60547;48.502;8.996;2023-02-01T10:00:39;98638.31;;;4.59;80.16
72525;BME280;60547;48.502;8.996;2023-02-01T10:03:11;98636.75;;;4.62;80.56
72525;BME280;60547;48.502;8.996;2023-02-01T10:08:37;98621.44;;;4.64;80.71
72525;BME280;60547;48.502;8.996;2023-02-01T10:17:07;98631.31;;;4.69;79.02
72525;BME280;60547;48.502;8.996;2023-02-01T10:22:11;98638.25;;;4.96;76.75
72525;BME280;60547;48.502;8.996;2023-02-01T10:24:49;98647.16;;;5.23;76.72
72525;BME280;60547;48.502;8.996;2023-02-01T10:27:25;98649.81;;;5.12;76.20
72525;BME280;60547;48.502;8.996;2023-02-01T10:29:58;98666.09;;;5.28;75.66
72525;BME280;60547;48.502;8.996;2023-02-01T10:32:30;98664.09;;;5.22;75.34
72525;BME280;60547;48.502;8.996;2023-02-01T10:34:59;98662.13;;;5.22;75.18
72525;BME280;60547;48.502;8.996;2023-02-01T10:37:33;98670.09;;;5.34;75.41
72525;BME280;60547;48.502;8.996;2023-02-01T10:40:09;98666.59;;;5.41;76.51
72525;BME280;60547;48.502;8.996;2023-02-01T10:42:39;98653.47;;;5.24;75.37
72525;BME280;60547;48.502;8.996;2023-02-01T10:45:05;98659.75;;;5.24;75.92
72525;BME280;60547;48.502;8.996;2023-02-01T10:47:31;98668.41;;;5.19;75.43
72525;BME280;60547;48.502;8.996;2023-02-01T10:52:48;98662.81;;;5.12;74.37
72525;BME280;60547;48.502;8.996;2023-02-01T10:58:01;98654.13;;;5.10;74.53
72525;BME280;60547;48.502;8.996;2023-02-01T11:00:28;98657.38;;;5.19;75.32
72525;BME280;60547;48.502;8.996;2023-02-01T11:02:59;98651.84;;;5.19;74.22
72525;BME280;60547;48.502;8.996;2023-02-01T11:05:24;98648.25;;;5.11;74.88
72525;BME280;60547;48.502;8.996;2023-02-01T11:07:53;98650.97;;;5.08;74.53
72525;BME280;60547;48.502;8.996;2023-02-01T11:10:41;98637.94;;;5.05;73.70
72525;BME280;60547;48.502;8.996;2023-02-01T11:13:14;98640.00;;;5.15;74.23
72525;BME280;60547;48.502;8.996;2023-02-01T11:15:45;98634.53;;;5.22;74.07
72525;BME280;60547;48.502;8.996;2023-02-01T11:18:19;98627.44;;;5.25;74.13
72525;BME280;60547;48.502;8.996;2023-02-01T11:20:46;98630.94;;;5.18;74.72
72525;BME280;60547;48.502;8.996;2023-02-01T11:23:22;98628.22;;;5.22;74.78
72525;BME280;60547;48.502;8.996;2023-02-01T11:25:53;98634.53;;;5.22;73.09
72525;BME280;60547;48.502;8.996;2023-02-01T11:28:23;98637.63;;;5.13;74.38
72525;BME280;60547;48.502;8.996;2023-02-01T11:30:51;98634.84;;;5.13;74.23
72525;BME280;60547;48.502;8.996;2023-02-01T11:33:20;98649.47;;;5.17;73.70
72525;BME280;60547;48.502;8.996;2023-02-01T11:35:51;98642.75;;;5.15;73.19
72525;BME280;60547;48.502;8.996;2023-02-01T11:38:30;98643.97;;;5.21;73.93
72525;BME280;60547;48.502;8.996;2023-02-01T11:41:13;98630.47;;;5.05;73.68
72525;BME280;60547;48.502;8.996;2023-02-01T11:46:19;98625.84;;;5.20;73.64
72525;BME280;60547;48.502;8.996;2023-02-01T11:48:51;98622.72;;;5.25;74.16
72525;BME280;60547;48.502;8.996;2023-02-01T11:59:43;98598.66;;;5.22;73.54
72525;BME280;60547;48.502;8.996;2023-02-01T12:18:55;98576.84;;;5.03;73.20
72525;BME280;60547;48.502;8.996;2023-02-01T12:30:03;98570.47;;;4.92;71.71
72525;BME280;60547;48.502;8.996;2023-02-01T12:37:56;98579.84;;;4.83;72.43
72525;BME280;60547;48.502;8.996;2023-02-01T12:40:31;98580.28;;;4.85;71.34
72525;BME280;60547;48.502;8.996;2023-02-01T12:43:09;98572.69;;;4.75;71.76
72525;BME280;60547;48.502;8.996;2023-02-01T12:45:40;98579.47;;;4.85;71.60
72525;BME280;60547;48.502;8.996;2023-02-01T12:51:18;98578.63;;;4.77;73.19
72525;BME280;60547;48.502;8.996;2023-02-01T12:53:50;98558.09;;;4.71;72.57
72525;BME280;60547;48.502;8.996;2023-02-01T12:56:25;98562.50;;;4.79;72.53
72525;BME280;60547;48.502;8.996;2023-02-01T12:58:56;98562.88;;;4.78;72.85
72525;BME280;60547;48.502;8.996;2023-02-01T13:01:39;98552.66;;;4.78;73.38
72525;BME280;60547;48.502;8.996;2023-02-01T13:04:15;98555.81;;;4.80;73.27
72525;BME280;60547;48.502;8.996;2023-02-01T13:06:48;98553.00;;;4.73;73.07
72525;BME280;60547;48.502;8.996;2023-02-01T13:09:29;98558.13;;;4.75;73.28
72525;BME280;60547;48.502;8.996;2023-02-01T13:12:07;98545.06;;;4.65;74.05
72525;BME280;60547;48.502;8.996;2023-02-01T13:17:14;98552.19;;;4.69;73.54
72525;BME280;60547;48.502;8.996;2023-02-01T13:22:41;98568.72;;;4.69;74.06
72525;BME280;60547;48.502;8.996;2023-02-01T13:25:14;98556.41;;;4.56;74.64
72525;BME280;60547;48.502;8.996;2023-02-01T13:27:41;98567.06;;;4.61;74.18
72525;BME280;60547;48.502;8.996;2023-02-01T13:30:57;98568.66;;;4.62;74.12
72525;BME280;60547;48.502;8.996;2023-02-01T13:36:05;98567.75;;;4.51;74.83
72525;BME280;60547;48.502;8.996;2023-02-01T13:44:05;98540.31;;;4.62;75.30
72525;BME280;60547;48.502;8.996;2023-02-01T13:46:44;98533.66;;;4.66;75.81
72525;BME280;60547;48.502;8.996;2023-02-01T13:49:21;98539.16;;;4.66;75.46
72525;BME280;60547;48.502;8.996;2023-02-01T13:51:51;98538.38;;;4.66;75.01
72525;BME280;60547;48.502;8.996;2023-02-01T13:54:28;98536.38;;;4.63;74.99
72525;BME280;60547;48.502;8.996;2023-02-01T13:56:54;98530.06;;;4.62;74.41
72525;BME280;60547;48.502;8.996;2023-02-01T14:07:34;98533.66;;;4.70;74.52
72525;BME280;60547;48.502;8.996;2023-02-01T14:13:11;98539.91;;;4.63;75.19
72525;BME280;60547;48.502;8.996;2023-02-01T14:15:37;98524.97;;;4.64;75.03
72525;BME280;60547;48.502;8.996;2023-02-01T14:23:53;98532.41;;;4.60;74.92
72525;BME280;60547;48.502;8.996;2023-02-01T14:26:41;98526.91;;;4.60;74.63
72525;BME280;60547;48.502;8.996;2023-02-01T14:31:59;98532.53;;;4.74;74.00
72525;BME280;60547;48.502;8.996;2023-02-01T14:47:44;98545.03;;;4.61;74.35
72525;BME280;60547;48.502;8.996;2023-02-01T14:53:04;98545.47;;;4.67;74.44
72525;BME280;60547;48.502;8.996;2023-02-01T14:58:01;98552.16;;;4.66;74.89
72525;BME280;60547;48.502;8.996;2023-02-01T15:00:29;98555.34;;;4.71;74.18
72525;BME280;60547;48.502;8.996;2023-02-01T15:03:15;98555.97;;;4.54;74.63
72525;BME280;60547;48.502;8.996;2023-02-01T15:05:42;98557.63;;;4.62;74.58
72525;BME280;60547;48.502;8.996;2023-02-01T15:08:19;98562.78;;;4.67;74.32
72525;BME280;60547;48.502;8.996;2023-02-01T15:10:49;98573.34;;;4.58;75.09
72525;BME280;60547;48.502;8.996;2023-02-01T15:13:24;98567.09;;;4.65;74.90
72525;BME280;60547;48.502;8.996;2023-02-01T15:16:10;98574.13;;;4.59;74.84
72525;BME280;60547;48.502;8.996;2023-02-01T15:18:36;98565.84;;;4.55;74.79
72525;BME280;60547;48.502;8.996;2023-02-01T15:21:03;98574.16;;;4.62;74.61
72525;BME280;60547;48.502;8.996;2023-02-01T15:23:30;98569.38;;;4.56;75.12
72525;BME280;60547;48.502;8.996;2023-02-01T15:25:56;98572.09;;;4.52;75.53
72525;BME280;60547;48.502;8.996;2023-02-01T15:28:21;98582.00;;;4.57;74.56
72525;BME280;60547;48.502;8.996;2023-02-01T15:31:02;98581.25;;;4.63;74.38
72525;BME280;60547;48.502;8.996;2023-02-01T15:33:29;98579.69;;;4.62;73.81
72525;BME280;60547;48.502;8.996;2023-02-01T15:38:36;98573.31;;;4.54;74.96
72525;BME280;60547;48.502;8.996;2023-02-01T15:41:14;98575.69;;;4.56;74.91
72525;BME280;60547;48.502;8.996;2023-02-01T15:44:05;98576.09;;;4.58;74.67
72525;BME280;60547;48.502;8.996;2023-02-01T15:46:39;98586.72;;;4.56;75.46
72525;BME280;60547;48.502;8.996;2023-02-01T15:51:45;98576.09;;;4.58;75.18
72525;BME280;60547;48.502;8.996;2023-02-01T15:54:22;98581.97;;;4.53;75.16